Time;durP1;ratioP1;P1;durP2;ratioP2;P2;SDS_P1;SDS_P2;PMS_P1;PMS_P2;Temp;Humidity;BMP_temperature;BMP_pressure;BME280_temperature;BME280_humidity;BME280_pressure;Samples;Min_cycle;Max_cycle;Signal;HPM_P1;HPM_P2
2022/01/14 00:00:24;;;;;;;28.00;16.50;;;;;;;2.54;82.48;101406.87;2130620;82;21092;-86
2022/01/14 00:03:25;;;;;;;27.75;15.58;;;;;;;2.56;82.54;101392.36;2129959;81;21008;-87
2022/01/14 00:06:26;;;;;;;30.12;15.93;;;;;;;2.57;82.53;101413.25;2129500;82;21043;-87
2022/01/14 00:09:28;;;;;;;32.38;17.87;;;;;;;2.55;82.48;101426.05;2128295;82;21486;-87
2022/01/14 00:12:36;;;;;;;31.68;16.45;;;;;;;2.56;82.45;101427.73;2129971;82;21469;-88
2022/01/14 00:15:34;;;;;;;34.25;16.05;;;;;;;2.55;82.44;101423.44;2127866;81;21536;-85
2022/01/14 00:18:35;;;;;;;29.77;16.90;;;;;;;2.51;82.41;101414.90;2131381;82;21455;-87
2022/01/14 00:21:40;;;;;;;27.20;15.60;;;;;;;2.49;82.43;101411.51;2132806;81;20997;-87
2022/01/14 00:34:35;;;;;;;31.02;19.02;;;;;;;2.47;82.52;101423.84;2127055;81;29055;-85
2022/01/14 00:37:37;;;;;;;27.60;15.70;;;;;;;2.54;82.52;101421.75;2143992;81;21050;-87
2022/01/14 00:40:39;;;;;;;28.90;15.63;;;;;;;2.56;82.42;101425.11;2142422;81;21023;-85
2022/01/14 00:43:42;;;;;;;29.87;16.45;;;;;;;2.55;82.50;101423.44;2146520;81;21025;-85
2022/01/14 00:46:46;;;;;;;26.95;16.00;;;;;;;2.55;82.56;101421.65;2144723;81;20999;-86
2022/01/14 00:49:48;;;;;;;30.50;16.45;;;;;;;2.54;82.52;101412.11;2141913;81;21504;-86
2022/01/14 00:52:49;;;;;;;26.93;15.88;;;;;;;2.52;82.49;101411.34;2144169;81;21001;-86
2022/01/14 00:55:58;;;;;;;30.88;16.90;;;;;;;2.53;82.62;101412.18;2142745;82;21540;-86
2022/01/14 01:02:13;;;;;;;29.80;15.93;;;;;;;2.50;82.60;101421.52;2144520;81;21001;-87
2022/01/14 01:05:17;;;;;;;29.63;16.02;;;;;;;2.50;82.62;101422.83;2140547;82;21022;-87
2022/01/14 01:08:23;;;;;;;26.48;15.30;;;;;;;2.47;82.66;101417.29;2141403;81;20992;-85
2022/01/14 01:11:28;;;;;;;30.40;16.90;;;;;;;2.46;82.63;101412.98;2141536;81;21522;-87
2022/01/14 01:14:38;;;;;;;28.40;15.90;;;;;;;2.46;82.63;101414.30;2141956;82;21082;-85
2022/01/14 01:17:30;;;;;;;35.43;17.35;;;;;;;2.44;82.71;101420.08;2144069;81;21028;-86
2022/01/14 01:20:31;;;;;;;26.33;15.15;;;;;;;2.43;82.72;101419.70;2143337;81;21052;-85
2022/01/14 01:23:33;;;;;;;27.15;14.90;;;;;;;2.44;82.74;101420.08;2142558;81;21107;-84
2022/01/14 01:26:39;;;;;;;27.25;16.10;;;;;;;2.44;82.71;101429.25;2139635;82;21037;-86
2022/01/14 01:32:46;;;;;;;31.02;16.52;;;;;;;2.47;82.61;101423.84;2140550;82;21012;-88
2022/01/14 01:35:48;;;;;;;29.00;17.05;;;;;;;2.45;82.61;101417.86;2139323;82;20992;-86
2022/01/14 01:38:49;;;;;;;33.83;18.25;;;;;;;2.42;82.59;101417.55;2142254;82;21546;-86
2022/01/14 01:41:55;;;;;;;28.77;16.70;;;;;;;2.41;82.58;101415.84;2138297;82;21028;-86
2022/01/14 01:44:59;;;;;;;25.27;15.53;;;;;;;2.39;82.61;101410.30;2141590;82;20980;-86
2022/01/14 01:48:00;;;;;;;26.70;14.93;;;;;;;2.38;82.63;101408.62;2137456;82;21040;-85
2022/01/14 01:51:04;;;;;;;27.45;15.30;;;;;;;2.36;82.62;101413.09;2140832;82;21043;-86
2022/01/14 01:54:06;;;;;;;27.80;14.33;;;;;;;2.36;82.65;101419.17;2142853;82;21033;-85
2022/01/14 01:57:07;;;;;;;28.70;15.90;;;;;;;2.35;82.59;101412.25;2138944;82;20993;-87
2022/01/14 02:00:12;;;;;;;25.90;15.75;;;;;;;2.37;82.58;101412.18;2137185;82;21035;-87
2022/01/14 02:03:19;;;;;;;26.02;15.63;;;;;;;2.36;82.49;101420.95;2139870;82;21092;-86
2022/01/14 02:06:22;;;;;;;29.35;15.50;;;;;;;2.36;82.45;101427.50;2143305;82;21020;-86
2022/01/14 02:09:24;;;;;;;26.62;13.83;;;;;;;2.33;82.31;101419.34;2139145;82;21078;-87
2022/01/14 02:12:34;;;;;;;26.25;15.83;;;;;;;2.33;82.22;101418.49;2141428;82;21063;-85
2022/01/14 02:16:16;;;;;;;32.00;16.02;;;;;;;2.34;82.16;101422.83;2139460;82;21017;-85
2022/01/14 02:18:47;;;;;;;27.67;16.62;;;;;;;2.32;82.19;101423.36;2136922;82;20984;-86
2022/01/14 02:25:11;;;;;;;28.00;15.65;;;;;;;2.29;82.14;101398.64;2140295;82;21547;-87
2022/01/14 02:28:16;;;;;;;29.30;15.43;;;;;;;2.28;82.14;101403.05;2139446;82;21024;-86
2022/01/14 02:31:17;;;;;;;27.95;15.28;;;;;;;2.26;82.13;101398.81;2139240;82;21537;-85
2022/01/14 02:34:19;;;;;;;28.42;16.70;;;;;;;2.27;82.09;101412.28;2140880;82;21086;-86
2022/01/14 02:37:20;;;;;;;32.65;18.35;;;;;;;2.26;82.14;101395.72;2140036;82;20969;-87
2022/01/14 02:40:22;;;;;;;33.02;17.10;;;;;;;2.24;82.13;101395.80;2142769;82;21458;-86
2022/01/14 02:43:25;;;;;;;30.05;15.93;;;;;;;2.24;82.13;101387.09;2141815;82;21005;-86
2022/01/14 02:46:27;;;;;;;31.87;17.00;;;;;;;2.23;82.19;101386.25;2140394;82;21027;-84
2022/01/14 02:49:30;;;;;;;32.95;16.12;;;;;;;2.21;82.28;101377.62;2137759;82;21517;-85
2022/01/14 02:52:53;;;;;;;39.33;17.65;;;;;;;2.22;82.31;101375.41;2141919;82;20998;-86
2022/01/14 02:55:44;;;;;;;37.53;16.27;;;;;;;2.21;82.28;101371.55;2135540;82;21518;-84
2022/01/14 02:58:46;;;;;;;42.53;19.98;;;;;;;2.20;82.45;101362.85;2143980;82;21106;-86
2022/01/14 03:01:50;;;;;;;31.57;16.48;;;;;;;2.18;82.43;101352.92;2142026;82;21090;-85
2022/01/14 03:04:52;;;;;;;30.12;16.48;;;;;;;2.17;82.55;101340.77;2141479;82;21515;-86
2022/01/14 03:07:54;;;;;;;31.87;16.55;;;;;;;2.17;82.57;101352.55;2144233;82;21079;-86
2022/01/14 03:10:59;;;;;;;30.08;16.90;;;;;;;2.17;82.58;101349.92;2144005;82;21027;-87
2022/01/14 03:14:03;;;;;;;33.63;17.70;;;;;;;2.18;82.66;101359.93;2144808;81;20997;-85
2022/01/14 03:17:05;;;;;;;34.67;16.57;;;;;;;2.17;82.78;101347.78;2139094;82;21058;-85
2022/01/14 03:20:10;;;;;;;27.62;15.20;;;;;;;2.17;82.95;101363.49;2139007;82;21055;-87
2022/01/14 03:23:13;;;;;;;32.70;16.67;;;;;;;2.17;82.90;101347.78;2144715;82;21041;-86
2022/01/14 03:26:17;;;;;;;31.55;17.12;;;;;;;2.19;82.94;101357.22;2144066;82;21025;-87
2022/01/14 03:29:19;;;;;;;29.77;16.45;;;;;;;2.18;82.89;101367.31;2143423;81;21024;-87
2022/01/14 03:32:21;;;;;;;37.70;17.25;;;;;;;2.18;82.92;101360.77;2142743;82;21475;-87
2022/01/14 03:35:22;;;;;;;32.95;17.90;;;;;;;2.20;83.09;101358.09;2144414;82;21005;-87
2022/01/14 03:38:24;;;;;;;30.52;16.37;;;;;;;2.20;83.21;101351.06;2139541;82;20998;-85
2022/01/14 03:41:25;;;;;;;30.52;16.10;;;;;;;2.21;83.19;101347.98;2141248;82;21019;-84
2022/01/14 03:44:26;;;;;;;30.25;16.60;;;;;;;2.20;83.19;101340.59;2145108;82;20980;-85
2022/01/14 03:47:27;;;;;;;30.80;16.25;;;;;;;2.18;83.33;101332.44;2140495;82;21046;-85
2022/01/14 03:50:29;;;;;;;29.05;15.40;;;;;;;2.18;83.26;101337.67;2141662;82;21021;-86
2022/01/14 03:53:30;;;;;;;37.10;18.00;;;;;;;2.17;83.35;101318.50;2140654;82;21542;-89
2022/01/14 03:56:32;;;;;;;32.00;18.20;;;;;;;2.19;83.53;101317.09;2141098;82;21572;-87
2022/01/14 03:59:33;;;;;;;31.10;18.62;;;;;;;2.17;83.47;101304.09;2143792;82;21034;-86
2022/01/14 04:02:34;;;;;;;33.98;16.87;;;;;;;2.12;83.59;101293.50;2138285;82;21026;-87
2022/01/14 04:05:36;;;;;;;30.97;17.35;;;;;;;2.10;83.62;101289.64;2140511;82;20949;-86
2022/01/14 04:08:38;;;;;;;33.08;16.93;;;;;;;2.10;83.76;101294.03;2143375;82;21535;-85
2022/01/14 04:11:39;;;;;;;29.98;16.67;;;;;;;2.10;83.85;101289.64;2142315;82;21063;-86
2022/01/14 04:17:51;;;;;;;30.52;17.62;;;;;;;2.09;83.77;101275.34;2150372;82;21515;-86
2022/01/14 04:20:52;;;;;;;34.63;17.73;;;;;;;2.09;83.76;101276.65;2140154;82;21020;-87
2022/01/14 04:23:53;;;;;;;32.42;17.35;;;;;;;2.07;83.83;101266.24;2143885;82;21868;-87
2022/01/14 04:26:54;;;;;;;32.60;16.97;;;;;;;2.06;83.85;101263.25;2123054;82;21063;-86
2022/01/14 04:29:56;;;;;;;35.70;17.92;;;;;;;2.07;83.79;101252.31;2124112;82;21943;-86
2022/01/14 04:32:58;;;;;;;34.27;17.07;;;;;;;2.05;83.91;101262.02;2130809;82;20998;-87
2022/01/14 04:36:00;;;;;;;30.12;16.15;;;;;;;2.07;83.88;101246.61;2119831;82;21152;-85
2022/01/14 04:39:02;;;;;;;38.13;18.87;;;;;;;2.07;83.79;101238.75;2122864;82;21066;-87
2022/01/14 04:42:05;;;;;;;35.08;17.87;;;;;;;2.07;83.78;101245.77;2124238;82;20998;-85
2022/01/14 04:45:09;;;;;;;38.58;19.15;;;;;;;2.04;83.88;101240.23;2125542;82;21088;-86
2022/01/14 04:48:12;;;;;;;35.33;18.87;;;;;;;2.03;83.92;101233.31;2119417;82;21062;-86
2022/01/14 04:51:13;;;;;;;36.40;18.62;;;;;;;2.00;83.89;101230.88;2133448;82;21099;-86
2022/01/14 04:54:14;;;;;;;39.03;19.90;;;;;;;1.97;83.80;101230.58;2119065;82;21047;-86
2022/01/14 04:57:16;;;;;;;40.58;19.05;;;;;;;1.94;83.74;101224.64;2121311;82;21030;-88
2022/01/14 05:00:21;;;;;;;44.03;22.32;;;;;;;1.91;83.71;101216.95;2121878;82;21109;-85
2022/01/14 05:03:23;;;;;;;39.92;20.95;;;;;;;1.88;83.62;101231.05;2118898;82;20965;-86
2022/01/14 05:06:24;;;;;;;38.90;20.55;;;;;;;1.85;83.67;101225.16;2124008;82;21588;-85
2022/01/14 05:09:32;;;;;;;38.53;18.42;;;;;;;1.83;83.64;101230.92;2119389;81;21053;-87
2022/01/14 05:12:33;;;;;;;42.40;21.73;;;;;;;1.81;83.64;101231.02;2125452;82;21054;-89
2022/01/14 05:15:34;;;;;;;44.00;21.85;;;;;;;1.81;83.72;101234.11;2121893;82;21011;-89
2022/01/14 05:18:38;;;;;;;39.85;20.85;;;;;;;1.79;83.73;101236.33;2120223;82;21089;-86
2022/01/14 05:21:39;;;;;;;46.63;22.55;;;;;;;1.79;83.76;101237.64;2122425;82;20954;-87
2022/01/14 05:24:40;;;;;;;45.35;24.02;;;;;;;1.79;83.79;101237.64;2124215;82;21547;-86
2022/01/14 05:27:43;;;;;;;41.20;21.25;;;;;;;1.78;83.80;101237.73;2124456;82;21037;-86
2022/01/14 05:30:44;;;;;;;38.30;21.42;;;;;;;1.77;83.86;101238.20;2090491;82;21046;-86
2022/01/14 05:33:47;;;;;;;40.40;19.92;;;;;;;1.77;83.83;101234.28;2116236;82;21075;-85
2022/01/14 05:36:48;;;;;;;42.48;20.12;;;;;;;1.77;83.92;101239.52;2130469;82;20978;-87
2022/01/14 05:39:49;;;;;;;41.95;21.80;;;;;;;1.76;84.05;101239.11;2120213;81;20984;-86
2022/01/14 05:42:50;;;;;;;41.65;20.62;;;;;;;1.75;83.99;101234.81;2131829;81;20998;-87
2022/01/14 05:45:51;;;;;;;46.08;21.97;;;;;;;1.76;84.05;101239.11;2120671;82;21289;-84
2022/01/14 05:48:53;;;;;;;40.92;21.33;;;;;;;1.76;84.05;101239.11;2127783;82;21052;-86
2022/01/14 05:51:54;;;;;;;39.92;21.05;;;;;;;1.74;84.14;101231.80;2132416;82;21100;-86
2022/01/14 05:54:56;;;;;;;38.98;20.92;;;;;;;1.73;84.23;101222.27;2121914;82;21458;-85
2022/01/14 05:57:57;;;;;;;37.85;20.52;;;;;;;1.72;84.31;101212.75;2119860;82;21088;-87
2022/01/14 06:00:58;;;;;;;43.33;22.48;;;;;;;1.72;84.27;101207.52;2131966;82;21508;-85
2022/01/14 06:04:05;;;;;;;43.00;21.48;;;;;;;1.71;84.33;101198.42;2125294;81;21062;-86
2022/01/14 06:07:06;;;;;;;38.65;19.70;;;;;;;1.71;84.53;101197.11;2121023;82;21050;-86
2022/01/14 06:10:09;;;;;;;41.18;20.97;;;;;;;1.71;84.54;101212.34;2125522;82;21537;-85
2022/01/14 06:13:11;;;;;;;43.83;22.27;;;;;;;1.73;84.62;101212.28;2123583;82;21036;-85
2022/01/14 06:16:12;;;;;;;40.67;21.45;;;;;;;1.71;84.73;101208.42;2133963;82;21020;-91
2022/01/14 06:19:13;;;;;;;42.62;20.82;;;;;;;1.70;84.77;101205.44;2125969;82;20997;-89
2022/01/14 06:22:15;;;;;;;42.43;21.65;;;;;;;1.69;84.86;101214.22;2112584;82;21172;-86
2022/01/14 06:25:16;;;;;;;41.37;20.68;;;;;;;1.69;84.94;101210.73;2128009;82;21023;-87
2022/01/14 06:28:17;;;;;;;39.08;19.85;;;;;;;1.68;85.12;101203.83;2125604;82;21158;-86
2022/01/14 06:31:19;;;;;;;41.15;20.85;;;;;;;1.68;85.09;101195.97;2121317;82;21052;-85
2022/01/14 06:34:20;;;;;;;42.00;20.48;;;;;;;1.69;85.16;101193.73;2122514;82;21015;-85
2022/01/14 06:37:22;;;;;;;41.37;21.48;;;;;;;1.71;85.09;101185.34;2121054;82;21860;-86
2022/01/14 06:40:24;;;;;;;37.98;20.35;;;;;;;1.71;85.06;101195.34;2114703;82;21631;-87
2022/01/14 06:43:25;;;;;;;34.48;18.70;;;;;;;1.69;85.10;101185.44;2123441;82;21045;-86
2022/01/14 06:46:26;;;;;;;39.40;19.25;;;;;;;1.69;85.23;101187.19;2121293;82;21544;-86
2022/01/14 06:49:28;;;;;;;36.42;19.05;;;;;;;1.69;85.31;101187.19;2129305;82;21009;-86
2022/01/14 06:52:29;;;;;;;37.42;18.80;;;;;;;1.69;85.35;101178.90;2131004;82;21069;-86
2022/01/14 06:55:31;;;;;;;38.80;18.15;;;;;;;1.69;85.53;101181.95;2122642;81;21654;-84
2022/01/14 06:58:32;;;;;;;32.98;18.92;;;;;;;1.71;85.61;101173.09;2123698;82;20962;-85
2022/01/14 07:01:33;;;;;;;38.92;18.92;;;;;;;1.70;85.65;101181.05;2121436;82;21604;-85
2022/01/14 07:04:34;;;;;;;40.52;20.40;;;;;;;1.71;85.57;101178.33;2117939;82;21029;-87
2022/01/14 07:07:36;;;;;;;36.65;18.80;;;;;;;1.71;85.74;101181.41;2119152;82;20999;-86
2022/01/14 07:10:39;;;;;;;36.23;18.25;;;;;;;1.72;85.72;101164.34;2124642;82;21011;-85
2022/01/14 07:13:40;;;;;;;38.35;19.23;;;;;;;1.74;85.68;101160.31;2115536;82;20995;-86
2022/01/14 07:16:41;;;;;;;41.73;20.97;;;;;;;1.75;85.81;101155.48;2126323;82;21064;-86
2022/01/14 07:19:43;;;;;;;38.45;19.48;;;;;;;1.74;86.02;101155.91;2124387;82;21529;-85
2022/01/14 07:22:49;;;;;;;35.40;18.37;;;;;;;1.73;85.98;101142.47;2119984;82;21046;-86
2022/01/14 07:25:50;;;;;;;39.73;19.95;;;;;;;1.73;86.04;101151.62;2124931;82;21021;-86
2022/01/14 07:28:51;;;;;;;37.28;19.32;;;;;;;1.73;86.13;101147.70;2130456;81;21024;-87
2022/01/14 07:31:53;;;;;;;38.02;19.12;;;;;;;1.75;86.16;101155.00;2127644;82;21013;-86
2022/01/14 07:34:54;;;;;;;39.20;18.45;;;;;;;1.77;86.36;101153.59;2130044;82;21060;-86
2022/01/14 07:37:55;;;;;;;35.35;18.20;;;;;;;1.79;86.27;101136.05;2132159;82;21628;-86
2022/01/14 07:40:56;;;;;;;36.23;18.07;;;;;;;1.79;86.33;101140.80;2133768;82;21467;-87
2022/01/14 07:43:58;;;;;;;33.63;18.60;;;;;;;1.81;86.59;101139.90;2132084;82;21015;-85
2022/01/14 07:46:59;;;;;;;30.08;16.75;;;;;;;1.83;86.47;101141.95;2133388;82;21423;-87
2022/01/14 07:50:01;;;;;;;34.50;17.15;;;;;;;1.85;86.55;101134.86;2129808;82;20965;-85
2022/01/14 07:53:03;;;;;;;35.78;17.82;;;;;;;1.87;86.39;101133.00;2132771;81;21101;-86
2022/01/14 07:56:06;;;;;;;32.05;17.27;;;;;;;1.90;86.53;101134.14;2130451;82;21004;-85
2022/01/14 07:59:08;;;;;;;32.48;17.27;;;;;;;1.91;86.58;101117.50;2130050;81;21044;-84
2022/01/14 08:02:12;;;;;;;33.65;17.20;;;;;;;1.92;86.75;101120.04;2130910;82;21015;-85
2022/01/14 08:05:15;;;;;;;33.60;17.00;;;;;;;1.94;86.79;101126.04;2130487;82;21004;-86
2022/01/14 08:08:16;;;;;;;33.33;18.20;;;;;;;1.95;86.88;101132.11;2126733;82;21072;-85
2022/01/14 08:11:18;;;;;;;33.00;17.80;;;;;;;1.95;86.84;101130.80;2129731;83;21084;-84
2022/01/14 08:14:19;;;;;;;34.20;17.60;;;;;;;1.96;87.00;101129.86;2131472;81;20991;-86
2022/01/14 08:17:21;;;;;;;34.67;17.87;;;;;;;1.97;87.04;101127.17;2133844;81;21438;-85
2022/01/14 08:20:22;;;;;;;28.98;15.72;;;;;;;1.98;87.01;101126.70;2131084;81;21024;-85
2022/01/14 08:23:24;;;;;;;33.38;15.98;;;;;;;1.99;87.15;101120.05;2128879;81;20972;-86
2022/01/14 08:26:25;;;;;;;26.93;15.45;;;;;;;2.04;87.14;101135.52;2132527;81;21036;-87
2022/01/14 08:29:30;;;;;;;29.72;15.05;;;;;;;2.07;87.16;101129.27;2134927;81;21474;-87
2022/01/14 08:32:32;;;;;;;29.67;16.55;;;;;;;2.09;87.13;101125.63;2131004;81;21032;-85
2022/01/14 08:35:33;;;;;;;30.25;15.80;;;;;;;2.12;87.01;101104.50;2132086;82;21475;-86
2022/01/14 08:38:37;;;;;;;28.23;16.20;;;;;;;2.13;87.12;101103.56;2127340;82;21542;-84
2022/01/14 08:41:38;;;;;;;28.40;15.72;;;;;;;2.13;87.07;101100.10;2133664;81;21007;-87
2022/01/14 08:44:40;;;;;;;27.15;15.88;;;;;;;2.13;87.04;101102.72;2129254;82;21004;-86
2022/01/14 08:47:42;;;;;;;30.60;17.17;;;;;;;2.13;87.07;101100.94;2131852;82;21633;-85
2022/01/14 08:50:45;;;;;;;30.70;17.12;;;;;;;2.14;87.19;101090.86;2133348;82;21040;-84
2022/01/14 08:53:46;;;;;;;38.33;17.92;;;;;;;2.15;87.24;101092.54;2131202;82;21604;-86
2022/01/14 08:56:48;;;;;;;33.63;18.20;;;;;;;2.16;87.10;101094.69;2129411;82;21046;-86
2022/01/14 08:59:49;;;;;;;32.28;16.95;;;;;;;2.18;87.12;101085.81;2133833;81;20951;-85
2022/01/14 09:02:53;;;;;;;35.95;16.62;;;;;;;2.19;87.17;101088.80;2131135;81;20968;-84
2022/01/14 09:05:54;;;;;;;30.27;17.10;;;;;;;2.19;87.11;101082.25;2114944;82;21001;-85
2022/01/14 09:08:56;;;;;;;29.70;15.90;;;;;;;2.22;87.18;101080.79;2138473;81;20922;-86
2022/01/14 09:11:57;;;;;;;36.08;17.70;;;;;;;2.24;87.17;101081.52;2132986;82;21012;-86
2022/01/14 09:15:00;;;;;;;27.93;16.32;;;;;;;2.25;87.10;101090.22;2130893;82;21471;-86
2022/01/14 09:18:01;;;;;;;31.57;16.50;;;;;;;2.28;87.08;101094.44;2129973;82;21095;-86
2022/01/14 09:21:04;;;;;;;32.70;16.20;;;;;;;2.29;87.02;101094.83;2129455;82;21016;-87
2022/01/14 09:24:08;;;;;;;28.02;14.78;;;;;;;2.32;87.02;101105.13;2130667;82;21063;-86
2022/01/14 09:27:10;;;;;;;29.65;16.48;;;;;;;2.33;86.99;101080.61;2132592;82;21048;-85
2022/01/14 09:30:13;;;;;;;27.17;13.62;;;;;;;2.35;87.01;101090.54;2140550;82;20991;-87
2022/01/14 09:33:17;;;;;;;26.00;14.73;;;;;;;2.36;87.04;101090.43;2142295;82;21490;-86
2022/01/14 09:36:18;;;;;;;28.62;14.40;;;;;;;2.36;86.98;101085.66;2139791;81;21112;-85
2022/01/14 09:39:20;;;;;;;26.12;14.40;;;;;;;2.38;87.01;101082.02;2148546;82;21290;-86
2022/01/14 09:42:21;;;;;;;26.50;14.83;;;;;;;2.40;86.91;101076.23;2142669;82;20997;-87
2022/01/14 09:45:23;;;;;;;23.77;14.38;;;;;;;2.42;86.92;101081.37;2141358;82;20988;-85
2022/01/14 09:48:24;;;;;;;23.05;13.13;;;;;;;2.43;86.87;101072.13;2141760;82;21491;-86
2022/01/14 09:51:26;;;;;;;23.45;13.28;;;;;;;2.45;86.87;101087.77;2142057;82;21032;-85
2022/01/14 09:54:27;;;;;;;27.32;14.30;;;;;;;2.45;86.84;101087.29;2144950;82;21055;-85
2022/01/14 09:57:29;;;;;;;23.73;14.28;;;;;;;2.47;86.87;101080.63;2141686;82;21518;-87
2022/01/14 10:00:30;;;;;;;26.07;14.40;;;;;;;2.51;86.96;101068.22;2143603;82;21556;-85
2022/01/14 10:03:32;;;;;;;22.90;13.38;;;;;;;2.50;86.87;101075.68;2144895;82;21012;-85
2022/01/14 10:06:46;;;;;;;26.93;13.95;;;;;;;2.50;86.80;101084.84;2144462;82;21119;-85
2022/01/14 10:09:55;;;;;;;22.25;12.88;;;;;;;2.50;86.80;101075.68;2141846;82;21530;-87
2022/01/14 10:12:51;;;;;;;26.25;13.90;;;;;;;2.52;86.74;101085.14;2139445;82;21048;-87
2022/01/14 10:16:00;;;;;;;28.20;13.80;;;;;;;2.51;86.70;101069.05;2136075;82;21526;-88
2022/01/14 10:19:02;;;;;;;22.77;13.72;;;;;;;2.54;86.72;101068.03;2142507;82;21557;-85
2022/01/14 10:22:26;;;;;;;21.90;12.03;;;;;;;2.52;86.63;101060.25;2140188;82;21095;-86
2022/01/14 10:25:27;;;;;;;24.52;13.53;;;;;;;2.52;86.65;101057.63;2144540;82;21427;-87
2022/01/14 10:28:29;;;;;;;27.55;15.18;;;;;;;2.55;86.62;101060.53;2132990;82;21472;-85
2022/01/14 10:31:37;;;;;;;24.35;12.80;;;;;;;2.56;86.57;101056.52;2134595;82;21547;-85
2022/01/14 10:34:38;;;;;;;24.98;13.78;;;;;;;2.54;86.54;101055.77;2135421;82;21008;-85
2022/01/14 10:37:40;;;;;;;28.55;14.98;;;;;;;2.53;86.58;101034.88;2136004;82;21529;-85
2022/01/14 10:40:48;;;;;;;27.82;14.70;;;;;;;2.54;86.57;101029.56;2133983;82;21048;-86
2022/01/14 10:43:50;;;;;;;28.50;14.60;;;;;;;2.52;86.62;101036.67;2139232;82;21541;-86
2022/01/14 10:47:19;;;;;;;27.82;15.28;;;;;;;2.52;86.59;101037.98;2134839;82;20966;-86
2022/01/14 10:50:39;;;;;;;24.82;13.80;;;;;;;2.54;86.59;101024.33;2131870;82;21015;-85
2022/01/14 10:53:50;;;;;;;26.70;15.05;;;;;;;2.55;86.67;101022.55;2136291;82;21498;-87
2022/01/14 10:56:55;;;;;;;22.95;13.90;;;;;;;2.54;86.68;101018.25;2138666;82;20980;-86
2022/01/14 11:00:17;;;;;;;24.77;14.30;;;;;;;2.54;86.62;101030.88;2116517;82;21040;-85
2022/01/14 11:03:41;;;;;;;23.90;13.55;;;;;;;2.55;86.61;101033.86;2135878;82;21515;-86
2022/01/14 11:06:42;;;;;;;24.05;13.30;;;;;;;2.54;86.56;101011.23;2131639;82;21023;-85
2022/01/14 11:09:44;;;;;;;27.13;13.48;;;;;;;2.56;86.53;101007.19;2138093;82;21035;-86
2022/01/14 11:12:47;;;;;;;26.33;13.95;;;;;;;2.57;86.55;101020.20;2136708;82;20979;-85
2022/01/14 11:15:48;;;;;;;23.32;13.55;;;;;;;2.55;86.52;101016.83;2133455;82;21051;-86
2022/01/14 11:18:51;;;;;;;25.00;14.13;;;;;;;2.57;86.52;101000.55;2140382;82;21029;-85
2022/01/14 11:25:24;;;;;;;23.87;13.43;;;;;;;2.57;86.52;100983.52;2135054;82;21526;-85
2022/01/14 11:28:37;;;;;;;24.25;13.83;;;;;;;2.58;86.44;100982.58;2138626;81;21625;-85
2022/01/14 11:31:40;;;;;;;28.32;14.53;;;;;;;2.58;86.46;100977.34;2138643;82;21065;-86
2022/01/14 11:34:45;;;;;;;25.57;14.40;;;;;;;2.57;86.48;100982.69;2136124;82;21048;-86
2022/01/14 11:37:47;;;;;;;29.15;14.75;;;;;;;2.56;86.48;100979.23;2141523;82;20997;-85
2022/01/14 11:40:50;;;;;;;25.80;13.98;;;;;;;2.56;86.52;100979.23;2137184;82;21610;-86
2022/01/14 11:43:55;;;;;;;23.10;13.68;;;;;;;2.54;86.57;100962.75;2141713;82;21058;-87
2022/01/14 11:47:00;;;;;;;28.35;14.35;;;;;;;2.55;86.55;100970.98;2136233;82;20999;-86
2022/01/14 11:50:00;;;;;;;22.45;14.03;;;;;;;2.57;86.48;100974.83;2133527;82;21010;-86
2022/01/14 11:53:02;;;;;;;25.40;13.68;;;;;;;2.56;86.48;100963.52;2138533;82;21016;-84
2022/01/14 11:56:11;;;;;;;25.88;13.50;;;;;;;2.57;86.48;100962.56;2136590;82;21543;-87
2022/01/14 11:59:23;;;;;;;28.87;14.65;;;;;;;2.58;86.50;100973.41;2097469;83;20992;-85
2022/01/14 12:02:29;;;;;;;27.52;14.15;;;;;;;2.56;86.46;100963.95;2136249;82;21077;-86
2022/01/14 12:05:31;;;;;;;25.10;14.33;;;;;;;2.58;86.41;100962.92;2135389;81;20974;-86
2022/01/14 12:08:37;;;;;;;26.80;13.78;;;;;;;2.57;86.40;100963.88;2133838;82;21060;-86
2022/01/14 12:11:38;;;;;;;27.50;14.35;;;;;;;2.57;86.40;100967.80;2130992;82;21116;-85
2022/01/14 12:14:45;;;;;;;25.08;14.98;;;;;;;2.58;86.35;100980.43;2133634;81;21008;-85
2022/01/14 12:17:43;;;;;;;30.70;15.03;;;;;;;2.57;86.37;100978.28;2136130;82;21083;-87
2022/01/14 12:20:50;;;;;;;27.77;16.10;;;;;;;2.56;86.33;100967.88;2133016;81;21040;-86
2022/01/14 12:23:52;;;;;;;29.27;15.58;;;;;;;2.55;86.32;100979.31;2132937;82;21007;-85
2022/01/14 12:27:03;;;;;;;27.30;16.02;;;;;;;2.51;86.33;100978.67;2134272;82;21037;-85
2022/01/14 12:30:10;;;;;;;29.82;16.40;;;;;;;2.47;86.24;100964.05;2127424;81;21000;-84
2022/01/14 12:33:11;;;;;;;32.35;16.67;;;;;;;2.42;86.30;100953.02;2125185;82;21459;-85
2022/01/14 12:36:19;;;;;;;23.95;14.00;;;;;;;2.40;86.35;100949.66;2125611;82;20997;-84
2022/01/14 12:39:21;;;;;;;29.82;16.20;;;;;;;2.40;86.33;100968.00;2126957;81;21102;-86
2022/01/14 12:42:24;;;;;;;30.17;15.98;;;;;;;2.36;86.28;100958.63;2127955;82;21052;-87
2022/01/14 12:45:37;;;;;;;30.57;15.90;;;;;;;2.35;86.27;100951.25;2124858;83;21503;-84
2022/01/14 12:48:46;;;;;;;31.25;16.67;;;;;;;2.33;86.33;100960.13;2125173;81;22102;-85
2022/01/14 12:52:08;;;;;;;29.32;15.88;;;;;;;2.32;86.32;100966.31;2121222;82;21012;-86
2022/01/14 12:55:10;;;;;;;34.48;16.70;;;;;;;2.32;86.31;100974.17;2127494;82;21454;-86
2022/01/14 12:58:12;;;;;;;24.07;14.43;;;;;;;2.34;86.32;100968.38;2129882;82;20961;-85
2022/01/14 13:01:13;;;;;;;27.48;15.78;;;;;;;2.35;86.33;100968.27;2121491;81;20965;-86
2022/01/14 13:04:17;;;;;;;27.58;15.90;;;;;;;2.35;86.34;100964.34;2127560;81;20993;-86
2022/01/14 13:07:24;;;;;;;31.05;15.80;;;;;;;2.38;86.36;100973.80;2128073;81;21008;-86
2022/01/14 13:10:26;;;;;;;29.20;15.95;;;;;;;2.38;86.25;100973.31;2123413;83;21020;-87
2022/01/14 13:13:27;;;;;;;30.17;15.45;;;;;;;2.39;86.19;100966.30;2123735;82;21040;-88
2022/01/14 13:16:45;;;;;;;33.23;15.93;;;;;;;2.40;86.21;100961.45;2129250;82;21515;-86
2022/01/14 13:19:47;;;;;;;32.48;17.90;;;;;;;2.41;86.17;100968.36;2128797;81;20977;-87
2022/01/14 13:22:50;;;;;;;32.45;16.80;;;;;;;2.41;86.13;100967.05;2124202;82;21489;-87
2022/01/14 13:25:52;;;;;;;27.77;16.05;;;;;;;2.40;86.20;100960.98;2127682;82;21039;-87
2022/01/14 13:28:57;;;;;;;30.23;16.42;;;;;;;2.39;86.25;100982.02;2134353;81;21060;-88
2022/01/14 13:31:58;;;;;;;31.50;16.25;;;;;;;2.38;86.39;100971.17;2131797;81;20961;-86
2022/01/14 13:35:14;;;;;;;29.48;14.53;;;;;;;2.34;86.54;100980.17;2129318;82;20980;-86
2022/01/14 13:38:21;;;;;;;26.73;15.30;;;;;;;2.31;86.66;100978.57;2136903;81;21033;-88
2022/01/14 13:41:25;;;;;;;29.20;14.80;;;;;;;2.28;87.01;100977.89;2138292;81;21029;-86
2022/01/14 13:44:33;;;;;;;32.73;16.65;;;;;;;2.23;87.23;100962.48;2135944;82;21006;-87
2022/01/14 13:47:35;;;;;;;28.70;16.23;;;;;;;2.22;87.25;100953.78;2140782;82;21024;-85
2022/01/14 13:50:52;;;;;;;27.40;13.72;;;;;;;2.21;87.46;100955.17;2135605;81;21028;-85
2022/01/14 13:53:55;;;;;;;21.40;13.62;;;;;;;2.19;87.83;100960.48;2113128;82;20996;-87
2022/01/14 13:57:12;;;;;;;24.77;13.90;;;;;;;2.19;87.93;100955.25;2133584;82;20956;-86
2022/01/14 14:00:16;;;;;;;24.37;13.22;;;;;;;2.17;88.14;100957.14;2115387;82;21046;-86
2022/01/14 14:03:33;;;;;;;22.87;13.72;;;;;;;2.17;88.38;100949.28;2133580;82;21078;-87
2022/01/14 14:06:48;;;;;;;21.52;12.93;;;;;;;2.18;88.34;100961.91;2132506;82;21550;-86
2022/01/14 14:09:50;;;;;;;24.23;12.97;;;;;;;2.18;88.54;100971.91;2132368;82;21009;-86
2022/01/14 14:12:49;;;;;;;21.17;11.63;;;;;;;2.19;88.59;100971.44;2131471;81;20985;-85
2022/01/14 14:15:50;;;;;;;19.92;12.33;;;;;;;2.19;88.63;100976.67;2137440;82;21674;-88
2022/01/14 14:18:58;;;;;;;19.42;11.25;;;;;;;2.20;88.72;100981.83;2134020;81;20998;-85
2022/01/14 14:22:33;;;;;;;22.02;11.88;;;;;;;2.21;88.89;100970.88;2133691;82;21003;-86
2022/01/14 14:25:38;;;;;;;23.12;12.05;;;;;;;2.21;88.93;100982.20;2137009;82;21040;-86
2022/01/14 14:28:39;;;;;;;18.85;10.40;;;;;;;2.21;89.03;100986.13;2129404;81;21028;-86